Portada
METAR-TAF:

METAR-TAF

Aeroports :

Aeroport d'Oslo-Gardermoen

Oslo, Noruega

latitud: 60-12N, longitud: 011-05E, altitud: 208 m

Observació

L'informe es va fer fa 26 minuts, a les 03:50 UTC
Vent 5 kt del Nord-Oest, variant entre Oest/Sud-Oest i Nord
Temperatura 5°C
Humitat 70%
Pressió 1000 hPa
Visibilitat 10 km o més
sense núvols per sota de 1500 mi sense presència de cumulonimbus.

METAR: ENGM 170350Z 31005KT 250V360 CAVOK 05/M00 Q1000 NOSIG

Hora: 06:16 (04:16 UTC)

Pronòstic

Pronòstic vàlid del 17 a les 00 UTC al 17 a les 24 UTC
Vent 7 kt del Oest/Nord-Oest
Visibilitat 10 km o més
sense núvols per sota de 1500 mi sense presència de cumulonimbus.
Evolucionant progressivament
l' 17 a les 05 UTC al 17 a les 07 UTC
Vent 10 kt del Nord
Temporalment
l' 17 a les 07 UTC al 17 a les 13 UTC
Vent 15 kt del Nord amb ràfegues de 25 kt

TAF: ENGM 1700/1724 30007KT CAVOK BECMG 1705/1707 36010KT TEMPO 1707/1713 35015G25KT

Observacions i pronòstics meteorològics de més de 4000 aeroports (METAR i TAF).

Les estacions disponibles són els punts grocs i vermells al mapa.

Posi el ratolí al punt desitjat per veure el nom de l'estació.

Feu clic per veure les observacions i els pronòstics meteorològics.

Per canviar el mapa: feu clic els botons verds amb una creu de color negre per apropar; al botó verd amb un guió per allunyar la imatge; o en les fletxes verdes per a mapes adjacents.


METAR-TAF: